sensor_id;sensor_type;location;lat;lon;timestamp;temperature;humidity
75363;DHT22;64122;51.988;5.892;2023-04-06T00:02:10;7.38;43.45
75363;DHT22;64122;51.988;5.892;2023-04-06T00:04:42;7.38;43.48
75363;DHT22;64122;51.988;5.892;2023-04-06T00:07:11;7.34;43.62
75363;DHT22;64122;51.988;5.892;2023-04-06T00:09:40;7.31;43.70
75363;DHT22;64122;51.988;5.892;2023-04-06T00:12:10;7.28;43.78
75363;DHT22;64122;51.988;5.892;2023-04-06T00:14:39;7.27;43.91
75363;DHT22;64122;51.988;5.892;2023-04-06T00:17:09;7.25;44.03
75363;DHT22;64122;51.988;5.892;2023-04-06T00:19:38;7.23;44.00
75363;DHT22;64122;51.988;5.892;2023-04-06T00:22:10;7.22;43.96
75363;DHT22;64122;51.988;5.892;2023-04-06T00:24:40;7.24;44.08
75363;DHT22;64122;51.988;5.892;2023-04-06T00:27:09;7.18;44.17
75363;DHT22;64122;51.988;5.892;2023-04-06T00:29:39;7.18;44.11
75363;DHT22;64122;51.988;5.892;2023-04-06T00:32:09;7.20;44.04
75363;DHT22;64122;51.988;5.892;2023-04-06T00:34:38;7.19;44.17
75363;DHT22;64122;51.988;5.892;2023-04-06T00:37:10;7.17;44.25
75363;DHT22;64122;51.988;5.892;2023-04-06T00:39:40;7.15;44.39
75363;DHT22;64122;51.988;5.892;2023-04-06T00:42:11;7.13;44.35
75363;DHT22;64122;51.988;5.892;2023-04-06T00:44:41;7.12;44.48
75363;DHT22;64122;51.988;5.892;2023-04-06T00:47:11;7.09;44.68
75363;DHT22;64122;51.988;5.892;2023-04-06T00:49:40;7.05;44.80
75363;DHT22;64122;51.988;5.892;2023-04-06T00:52:12;7.04;45.12
75363;DHT22;64122;51.988;5.892;2023-04-06T00:54:45;7.05;44.99
75363;DHT22;64122;51.988;5.892;2023-04-06T00:57:15;7.07;44.94
75363;DHT22;64122;51.988;5.892;2023-04-06T00:59:47;7.05;45.11
75363;DHT22;64122;51.988;5.892;2023-04-06T01:02:16;7.02;45.11
75363;DHT22;64122;51.988;5.892;2023-04-06T01:04:49;7.00;45.65
75363;DHT22;64122;51.988;5.892;2023-04-06T01:07:28;6.97;45.70
75363;DHT22;64122;51.988;5.892;2023-04-06T01:10:09;6.95;45.53
75363;DHT22;64122;51.988;5.892;2023-04-06T01:12:39;6.95;45.56
75363;DHT22;64122;51.988;5.892;2023-04-06T01:15:18;6.94;45.60
75363;DHT22;64122;51.988;5.892;2023-04-06T01:17:51;6.90;45.80
75363;DHT22;64122;51.988;5.892;2023-04-06T01:20:20;6.91;45.69
75363;DHT22;64122;51.988;5.892;2023-04-06T01:22:53;6.87;45.79
75363;DHT22;64122;51.988;5.892;2023-04-06T01:25:23;6.85;45.97
75363;DHT22;64122;51.988;5.892;2023-04-06T01:28:02;6.83;46.25
75363;DHT22;64122;51.988;5.892;2023-04-06T01:31:04;6.78;46.14
75363;DHT22;64122;51.988;5.892;2023-04-06T01:33:45;6.76;46.16
75363;DHT22;64122;51.988;5.892;2023-04-06T01:36:17;6.74;46.26
75363;DHT22;64122;51.988;5.892;2023-04-06T01:38:56;6.71;46.31
75363;DHT22;64122;51.988;5.892;2023-04-06T01:41:32;6.70;46.50
75363;DHT22;64122;51.988;5.892;2023-04-06T01:44:02;6.70;46.67
75363;DHT22;64122;51.988;5.892;2023-04-06T01:46:32;6.68;46.88
75363;DHT22;64122;51.988;5.892;2023-04-06T01:49:04;6.66;47.04
75363;DHT22;64122;51.988;5.892;2023-04-06T01:51:35;6.68;47.05
75363;DHT22;64122;51.988;5.892;2023-04-06T01:54:11;6.67;47.12
75363;DHT22;64122;51.988;5.892;2023-04-06T01:56:56;6.66;47.24
75363;DHT22;64122;51.988;5.892;2023-04-06T01:59:46;6.66;47.34
75363;DHT22;64122;51.988;5.892;2023-04-06T02:02:35;6.66;47.28
75363;DHT22;64122;51.988;5.892;2023-04-06T02:05:09;6.67;47.43
75363;DHT22;64122;51.988;5.892;2023-04-06T02:07:39;6.66;47.34
75363;DHT22;64122;51.988;5.892;2023-04-06T02:10:14;6.65;47.50
75363;DHT22;64122;51.988;5.892;2023-04-06T02:12:44;6.66;47.42
75363;DHT22;64122;51.988;5.892;2023-04-06T02:15:20;6.67;47.31
75363;DHT22;64122;51.988;5.892;2023-04-06T02:17:50;6.66;47.20
75363;DHT22;64122;51.988;5.892;2023-04-06T02:20:19;6.66;47.43
75363;DHT22;64122;51.988;5.892;2023-04-06T02:22:50;6.68;47.31
75363;DHT22;64122;51.988;5.892;2023-04-06T02:25:23;6.70;47.77
75363;DHT22;64122;51.988;5.892;2023-04-06T02:27:52;6.72;47.89
75363;DHT22;64122;51.988;5.892;2023-04-06T02:30:21;6.75;47.69
75363;DHT22;64122;51.988;5.892;2023-04-06T02:32:51;6.79;47.41
75363;DHT22;64122;51.988;5.892;2023-04-06T02:35:20;6.79;47.90
75363;DHT22;64122;51.988;5.892;2023-04-06T02:37:53;6.61;47.50
75363;DHT22;64122;51.988;5.892;2023-04-06T02:40:25;6.71;47.50
75363;DHT22;64122;51.988;5.892;2023-04-06T02:42:55;6.75;47.46
75363;DHT22;64122;51.988;5.892;2023-04-06T02:45:30;6.75;47.97
75363;DHT22;64122;51.988;5.892;2023-04-06T02:48:01;6.76;47.53
75363;DHT22;64122;51.988;5.892;2023-04-06T02:50:31;6.76;47.54
75363;DHT22;64122;51.988;5.892;2023-04-06T02:53:04;6.78;47.60
75363;DHT22;64122;51.988;5.892;2023-04-06T02:55:38;6.76;47.61
75363;DHT22;64122;51.988;5.892;2023-04-06T02:58:07;6.76;47.67
75363;DHT22;64122;51.988;5.892;2023-04-06T03:00:45;6.81;47.63
75363;DHT22;64122;51.988;5.892;2023-04-06T03:03:14;6.79;47.61
75363;DHT22;64122;51.988;5.892;2023-04-06T03:05:45;6.79;47.70
75363;DHT22;64122;51.988;5.892;2023-04-06T03:08:15;6.78;47.89
75363;DHT22;64122;51.988;5.892;2023-04-06T03:10:48;6.78;47.86
75363;DHT22;64122;51.988;5.892;2023-04-06T03:13:18;6.80;47.96
75363;DHT22;64122;51.988;5.892;2023-04-06T03:15:51;6.79;48.02
75363;DHT22;64122;51.988;5.892;2023-04-06T03:18:23;6.82;48.15
75363;DHT22;64122;51.988;5.892;2023-04-06T03:20:55;6.85;48.15
75363;DHT22;64122;51.988;5.892;2023-04-06T03:23:32;6.88;48.03
75363;DHT22;64122;51.988;5.892;2023-04-06T03:26:05;6.86;47.96
75363;DHT22;64122;51.988;5.892;2023-04-06T03:28:34;6.87;48.09
75363;DHT22;64122;51.988;5.892;2023-04-06T03:31:05;6.87;47.87
75363;DHT22;64122;51.988;5.892;2023-04-06T03:33:58;6.87;47.79
75363;DHT22;64122;51.988;5.892;2023-04-06T03:36:31;6.88;47.79
75363;DHT22;64122;51.988;5.892;2023-04-06T03:39:02;6.89;47.73
75363;DHT22;64122;51.988;5.892;2023-04-06T03:41:37;6.88;48.40
75363;DHT22;64122;51.988;5.892;2023-04-06T03:44:19;6.89;48.00
75363;DHT22;64122;51.988;5.892;2023-04-06T03:46:48;6.90;47.94
75363;DHT22;64122;51.988;5.892;2023-04-06T03:49:18;6.91;47.91
75363;DHT22;64122;51.988;5.892;2023-04-06T03:51:50;6.90;48.16
75363;DHT22;64122;51.988;5.892;2023-04-06T03:54:20;6.91;48.21
75363;DHT22;64122;51.988;5.892;2023-04-06T03:56:52;6.90;48.38
75363;DHT22;64122;51.988;5.892;2023-04-06T03:59:21;6.89;48.58
75363;DHT22;64122;51.988;5.892;2023-04-06T04:01:53;6.85;48.67
75363;DHT22;64122;51.988;5.892;2023-04-06T04:04:22;6.82;48.73
75363;DHT22;64122;51.988;5.892;2023-04-06T04:06:51;6.79;48.91
75363;DHT22;64122;51.988;5.892;2023-04-06T04:09:20;6.76;49.20
75363;DHT22;64122;51.988;5.892;2023-04-06T04:11:53;6.73;49.08
75363;DHT22;64122;51.988;5.892;2023-04-06T04:14:23;6.73;49.41
75363;DHT22;64122;51.988;5.892;2023-04-06T04:16:52;6.70;49.40
75363;DHT22;64122;51.988;5.892;2023-04-06T04:19:21;6.71;49.31
75363;DHT22;64122;51.988;5.892;2023-04-06T04:21:51;6.72;49.29
75363;DHT22;64122;51.988;5.892;2023-04-06T04:24:28;6.73;49.41
75363;DHT22;64122;51.988;5.892;2023-04-06T04:27:00;6.71;49.58
75363;DHT22;64122;51.988;5.892;2023-04-06T04:29:32;6.73;49.46
75363;DHT22;64122;51.988;5.892;2023-04-06T04:32:06;6.79;49.33
75363;DHT22;64122;51.988;5.892;2023-04-06T04:34:35;6.80;49.35
75363;DHT22;64122;51.988;5.892;2023-04-06T04:37:07;6.76;49.35
75363;DHT22;64122;51.988;5.892;2023-04-06T04:39:50;6.73;49.37
75363;DHT22;64122;51.988;5.892;2023-04-06T04:42:22;6.78;49.21
75363;DHT22;64122;51.988;5.892;2023-04-06T04:44:54;6.81;49.26
75363;DHT22;64122;51.988;5.892;2023-04-06T04:47:35;6.84;49.10
75363;DHT22;64122;51.988;5.892;2023-04-06T04:50:07;6.86;49.08
75363;DHT22;64122;51.988;5.892;2023-04-06T04:52:40;6.88;48.92
75363;DHT22;64122;51.988;5.892;2023-04-06T04:55:14;6.89;49.19
75363;DHT22;64122;51.988;5.892;2023-04-06T04:57:49;6.91;49.05
75363;DHT22;64122;51.988;5.892;2023-04-06T05:00:23;6.96;48.94
75363;DHT22;64122;51.988;5.892;2023-04-06T05:02:56;6.85;48.65
75363;DHT22;64122;51.988;5.892;2023-04-06T05:05:28;6.95;48.79
75363;DHT22;64122;51.988;5.892;2023-04-06T05:07:58;6.97;48.69
75363;DHT22;64122;51.988;5.892;2023-04-06T05:10:46;6.96;48.68
75363;DHT22;64122;51.988;5.892;2023-04-06T05:13:18;6.99;48.53
75363;DHT22;64122;51.988;5.892;2023-04-06T05:15:49;7.05;48.54
75363;DHT22;64122;51.988;5.892;2023-04-06T05:18:31;7.13;48.30
75363;DHT22;64122;51.988;5.892;2023-04-06T05:21:02;7.19;48.24
75363;DHT22;64122;51.988;5.892;2023-04-06T05:23:50;7.26;47.84
75363;DHT22;64122;51.988;5.892;2023-04-06T05:26:21;7.33;48.06
75363;DHT22;64122;51.988;5.892;2023-04-06T05:28:57;7.42;47.38
75363;DHT22;64122;51.988;5.892;2023-04-06T05:31:31;7.53;46.99
75363;DHT22;64122;51.988;5.892;2023-04-06T05:34:01;7.61;46.83
75363;DHT22;64122;51.988;5.892;2023-04-06T05:36:33;7.70;46.46
75363;DHT22;64122;51.988;5.892;2023-04-06T05:39:08;7.78;46.33
75363;DHT22;64122;51.988;5.892;2023-04-06T05:41:43;7.85;46.16
75363;DHT22;64122;51.988;5.892;2023-04-06T05:44:16;7.89;46.03
75363;DHT22;64122;51.988;5.892;2023-04-06T05:46:51;7.97;45.73
75363;DHT22;64122;51.988;5.892;2023-04-06T05:49:20;8.04;46.06
75363;DHT22;64122;51.988;5.892;2023-04-06T05:51:49;8.13;45.88
75363;DHT22;64122;51.988;5.892;2023-04-06T05:54:19;8.17;45.91
75363;DHT22;64122;51.988;5.892;2023-04-06T05:56:50;8.29;46.12
75363;DHT22;64122;51.988;5.892;2023-04-06T05:59:22;8.38;45.71
75363;DHT22;64122;51.988;5.892;2023-04-06T06:01:53;8.49;45.38
75363;DHT22;64122;51.988;5.892;2023-04-06T06:04:22;8.59;45.23
75363;DHT22;64122;51.988;5.892;2023-04-06T06:06:53;8.65;45.12
75363;DHT22;64122;51.988;5.892;2023-04-06T06:09:32;8.77;44.58
75363;DHT22;64122;51.988;5.892;2023-04-06T06:12:13;8.85;44.39
75363;DHT22;64122;51.988;5.892;2023-04-06T06:14:44;8.98;44.24
75363;DHT22;64122;51.988;5.892;2023-04-06T06:17:14;9.10;43.84
75363;DHT22;64122;51.988;5.892;2023-04-06T06:19:47;9.17;43.90
75363;DHT22;64122;51.988;5.892;2023-04-06T06:22:16;9.21;43.82
75363;DHT22;64122;51.988;5.892;2023-04-06T06:24:47;9.23;43.75
75363;DHT22;64122;51.988;5.892;2023-04-06T06:27:18;9.26;43.90
75363;DHT22;64122;51.988;5.892;2023-04-06T06:29:50;9.33;43.51
75363;DHT22;64122;51.988;5.892;2023-04-06T06:32:20;9.44;43.35
75363;DHT22;64122;51.988;5.892;2023-04-06T06:34:52;9.61;42.92
75363;DHT22;64122;51.988;5.892;2023-04-06T06:37:21;9.82;42.42
75363;DHT22;64122;51.988;5.892;2023-04-06T06:39:50;10.03;42.03
75363;DHT22;64122;51.988;5.892;2023-04-06T06:42:21;10.21;41.62
75363;DHT22;64122;51.988;5.892;2023-04-06T06:45:12;10.39;41.25
75363;DHT22;64122;51.988;5.892;2023-04-06T06:47:41;10.57;40.97
75363;DHT22;64122;51.988;5.892;2023-04-06T06:50:11;10.72;40.72
75363;DHT22;64122;51.988;5.892;2023-04-06T06:52:40;10.88;40.50
75363;DHT22;64122;51.988;5.892;2023-04-06T06:55:10;10.98;40.15
75363;DHT22;64122;51.988;5.892;2023-04-06T06:57:40;11.05;40.13
75363;DHT22;64122;51.988;5.892;2023-04-06T07:00:13;11.11;40.06
75363;DHT22;64122;51.988;5.892;2023-04-06T07:02:45;11.20;40.01
75363;DHT22;64122;51.988;5.892;2023-04-06T07:05:16;11.24;39.85
75363;DHT22;64122;51.988;5.892;2023-04-06T07:07:45;11.28;40.01
75363;DHT22;64122;51.988;5.892;2023-04-06T07:10:15;11.38;39.75
75363;DHT22;64122;51.988;5.892;2023-04-06T07:12:44;11.46;39.58
75363;DHT22;64122;51.988;5.892;2023-04-06T07:15:16;11.56;39.43
75363;DHT22;64122;51.988;5.892;2023-04-06T07:17:46;11.68;39.27
75363;DHT22;64122;51.988;5.892;2023-04-06T07:20:16;11.94;38.77
75363;DHT22;64122;51.988;5.892;2023-04-06T07:22:46;12.23;38.35
75363;DHT22;64122;51.988;5.892;2023-04-06T07:25:16;12.36;38.11
75363;DHT22;64122;51.988;5.892;2023-04-06T07:27:45;12.43;38.13
75363;DHT22;64122;51.988;5.892;2023-04-06T07:30:18;12.61;37.60
75363;DHT22;64122;51.988;5.892;2023-04-06T07:32:48;12.74;37.49
75363;DHT22;64122;51.988;5.892;2023-04-06T07:35:17;13.01;37.08
75363;DHT22;64122;51.988;5.892;2023-04-06T07:37:47;13.26;36.69
75363;DHT22;64122;51.988;5.892;2023-04-06T07:40:16;13.35;36.62
75363;DHT22;64122;51.988;5.892;2023-04-06T07:42:46;13.64;36.10
75363;DHT22;64122;51.988;5.892;2023-04-06T07:45:19;14.04;35.56
75363;DHT22;64122;51.988;5.892;2023-04-06T07:47:48;14.06;35.68
75363;DHT22;64122;51.988;5.892;2023-04-06T07:50:20;13.74;35.99
75363;DHT22;64122;51.988;5.892;2023-04-06T07:52:50;13.49;36.74
75363;DHT22;64122;51.988;5.892;2023-04-06T07:55:19;13.36;37.26
75363;DHT22;64122;51.988;5.892;2023-04-06T07:57:49;13.16;37.26
75363;DHT22;64122;51.988;5.892;2023-04-06T08:00:21;12.95;37.51
75363;DHT22;64122;51.988;5.892;2023-04-06T08:02:51;12.86;37.54
75363;DHT22;64122;51.988;5.892;2023-04-06T08:05:20;12.77;37.85
75363;DHT22;64122;51.988;5.892;2023-04-06T08:07:49;12.65;37.79
75363;DHT22;64122;51.988;5.892;2023-04-06T08:10:19;12.59;38.04
75363;DHT22;64122;51.988;5.892;2023-04-06T08:12:48;12.55;38.10
75363;DHT22;64122;51.988;5.892;2023-04-06T08:15:20;12.42;38.34
75363;DHT22;64122;51.988;5.892;2023-04-06T08:17:49;12.34;38.63
75363;DHT22;64122;51.988;5.892;2023-04-06T08:20:18;12.26;38.81
75363;DHT22;64122;51.988;5.892;2023-04-06T08:22:48;12.28;38.79
75363;DHT22;64122;51.988;5.892;2023-04-06T08:25:17;12.32;38.85
75363;DHT22;64122;51.988;5.892;2023-04-06T08:27:46;12.40;38.60
75363;DHT22;64122;51.988;5.892;2023-04-06T08:30:16;12.48;38.53
75363;DHT22;64122;51.988;5.892;2023-04-06T08:32:48;12.58;38.24
75363;DHT22;64122;51.988;5.892;2023-04-06T08:35:17;12.69;38.27
75363;DHT22;64122;51.988;5.892;2023-04-06T08:37:46;12.86;38.10
75363;DHT22;64122;51.988;5.892;2023-04-06T08:40:16;13.02;38.04
75363;DHT22;64122;51.988;5.892;2023-04-06T08:42:50;13.12;38.13
75363;DHT22;64122;51.988;5.892;2023-04-06T08:45:21;13.22;37.46
75363;DHT22;64122;51.988;5.892;2023-04-06T08:47:54;13.29;37.08
75363;DHT22;64122;51.988;5.892;2023-04-06T08:50:28;13.41;36.72
75363;DHT22;64122;51.988;5.892;2023-04-06T08:52:59;13.56;36.59
75363;DHT22;64122;51.988;5.892;2023-04-06T08:55:29;13.62;36.20
75363;DHT22;64122;51.988;5.892;2023-04-06T08:57:59;13.63;36.13
75363;DHT22;64122;51.988;5.892;2023-04-06T09:00:29;13.73;36.02
75363;DHT22;64122;51.988;5.892;2023-04-06T09:03:01;13.92;35.80
75363;DHT22;64122;51.988;5.892;2023-04-06T09:05:32;14.12;35.59
75363;DHT22;64122;51.988;5.892;2023-04-06T09:08:02;14.28;35.73
75363;DHT22;64122;51.988;5.892;2023-04-06T09:10:32;14.48;35.55
75363;DHT22;64122;51.988;5.892;2023-04-06T09:13:05;14.68;35.18
75363;DHT22;64122;51.988;5.892;2023-04-06T09:15:35;14.94;35.16
75363;DHT22;64122;51.988;5.892;2023-04-06T09:18:07;15.24;34.90
75363;DHT22;64122;51.988;5.892;2023-04-06T09:20:36;15.48;34.34
75363;DHT22;64122;51.988;5.892;2023-04-06T09:23:06;15.73;34.08
75363;DHT22;64122;51.988;5.892;2023-04-06T09:25:46;15.80;33.83
75363;DHT22;64122;51.988;5.892;2023-04-06T09:28:15;15.77;33.85
75363;DHT22;64122;51.988;5.892;2023-04-06T09:30:48;15.76;34.13
75363;DHT22;64122;51.988;5.892;2023-04-06T09:33:24;15.80;34.33
75363;DHT22;64122;51.988;5.892;2023-04-06T09:35:53;15.83;34.05
75363;DHT22;64122;51.988;5.892;2023-04-06T09:38:23;15.87;34.25
75363;DHT22;64122;51.988;5.892;2023-04-06T09:40:52;15.84;34.29
75363;DHT22;64122;51.988;5.892;2023-04-06T09:43:24;15.90;34.07
75363;DHT22;64122;51.988;5.892;2023-04-06T09:45:55;16.11;33.94
75363;DHT22;64122;51.988;5.892;2023-04-06T09:48:28;16.40;33.52
75363;DHT22;64122;51.988;5.892;2023-04-06T09:51:03;16.51;33.22
75363;DHT22;64122;51.988;5.892;2023-04-06T09:53:36;16.64;32.98
75363;DHT22;64122;51.988;5.892;2023-04-06T09:56:11;16.81;32.64
75363;DHT22;64122;51.988;5.892;2023-04-06T09:58:42;16.90;32.34
75363;DHT22;64122;51.988;5.892;2023-04-06T10:01:15;16.94;32.43
75363;DHT22;64122;51.988;5.892;2023-04-06T10:03:52;16.94;32.69
75363;DHT22;64122;51.988;5.892;2023-04-06T10:06:26;16.86;32.67
75363;DHT22;64122;51.988;5.892;2023-04-06T10:08:59;16.86;33.03
75363;DHT22;64122;51.988;5.892;2023-04-06T10:11:31;16.86;32.83
75363;DHT22;64122;51.988;5.892;2023-04-06T10:14:00;16.76;33.03
75363;DHT22;64122;51.988;5.892;2023-04-06T10:16:30;16.63;33.42
75363;DHT22;64122;51.988;5.892;2023-04-06T10:19:09;16.49;33.44
75363;DHT22;64122;51.988;5.892;2023-04-06T10:21:39;16.20;34.13
75363;DHT22;64122;51.988;5.892;2023-04-06T10:24:09;16.13;34.11
75363;DHT22;64122;51.988;5.892;2023-04-06T10:26:39;16.06;34.41
75363;DHT22;64122;51.988;5.892;2023-04-06T10:29:09;15.98;34.58
75363;DHT22;64122;51.988;5.892;2023-04-06T10:31:42;15.90;34.73
75363;DHT22;64122;51.988;5.892;2023-04-06T10:34:14;15.77;34.91
75363;DHT22;64122;51.988;5.892;2023-04-06T10:36:44;15.63;35.22
75363;DHT22;64122;51.988;5.892;2023-04-06T10:39:13;15.59;35.50
75363;DHT22;64122;51.988;5.892;2023-04-06T10:41:45;15.57;35.78
75363;DHT22;64122;51.988;5.892;2023-04-06T10:44:20;15.63;35.97
75363;DHT22;64122;51.988;5.892;2023-04-06T10:46:53;15.67;35.78
75363;DHT22;64122;51.988;5.892;2023-04-06T10:49:25;15.68;35.96
75363;DHT22;64122;51.988;5.892;2023-04-06T10:51:55;15.75;35.96
75363;DHT22;64122;51.988;5.892;2023-04-06T10:54:26;15.88;36.12
75363;DHT22;64122;51.988;5.892;2023-04-06T10:56:57;16.04;35.62
75363;DHT22;64122;51.988;5.892;2023-04-06T10:59:29;16.26;35.44
75363;DHT22;64122;51.988;5.892;2023-04-06T11:01:58;16.54;35.53
75363;DHT22;64122;51.988;5.892;2023-04-06T11:04:30;16.72;34.92
75363;DHT22;64122;51.988;5.892;2023-04-06T11:06:59;16.67;35.13
75363;DHT22;64122;51.988;5.892;2023-04-06T11:09:29;16.59;35.32
75363;DHT22;64122;51.988;5.892;2023-04-06T11:11:59;16.58;35.50
75363;DHT22;64122;51.988;5.892;2023-04-06T11:14:28;16.48;36.00
75363;DHT22;64122;51.988;5.892;2023-04-06T11:16:58;16.42;36.22
75363;DHT22;64122;51.988;5.892;2023-04-06T11:19:29;16.32;36.53
75363;DHT22;64122;51.988;5.892;2023-04-06T11:22:07;16.25;36.71
75363;DHT22;64122;51.988;5.892;2023-04-06T11:24:36;16.27;37.04
75363;DHT22;64122;51.988;5.892;2023-04-06T11:27:06;16.43;37.33
75363;DHT22;64122;51.988;5.892;2023-04-06T11:29:35;16.57;37.14
75363;DHT22;64122;51.988;5.892;2023-04-06T11:32:05;16.58;37.16
75363;DHT22;64122;51.988;5.892;2023-04-06T11:34:38;16.47;37.64
75363;DHT22;64122;51.988;5.892;2023-04-06T11:37:09;16.32;37.63
75363;DHT22;64122;51.988;5.892;2023-04-06T11:39:40;16.28;38.21
75363;DHT22;64122;51.988;5.892;2023-04-06T11:42:09;16.21;38.71
75363;DHT22;64122;51.988;5.892;2023-04-06T11:44:40;16.01;39.85
75363;DHT22;64122;51.988;5.892;2023-04-06T11:47:12;15.82;40.38
75363;DHT22;64122;51.988;5.892;2023-04-06T11:49:44;15.59;40.94
75363;DHT22;64122;51.988;5.892;2023-04-06T11:52:15;15.29;42.42
75363;DHT22;64122;51.988;5.892;2023-04-06T11:54:45;15.16;43.29
75363;DHT22;64122;51.988;5.892;2023-04-06T11:57:15;15.03;44.14
75363;DHT22;64122;51.988;5.892;2023-04-06T11:59:45;14.95;45.05
75363;DHT22;64122;51.988;5.892;2023-04-06T12:02:14;14.64;46.57
75363;DHT22;64122;51.988;5.892;2023-04-06T12:04:46;14.44;46.73
75363;DHT22;64122;51.988;5.892;2023-04-06T12:07:15;14.26;47.95
75363;DHT22;64122;51.988;5.892;2023-04-06T12:09:45;14.11;48.01
75363;DHT22;64122;51.988;5.892;2023-04-06T12:12:14;14.03;48.28
75363;DHT22;64122;51.988;5.892;2023-04-06T12:14:43;13.97;49.71
75363;DHT22;64122;51.988;5.892;2023-04-06T12:17:13;14.01;50.55
75363;DHT22;64122;51.988;5.892;2023-04-06T12:19:42;14.05;50.49
75363;DHT22;64122;51.988;5.892;2023-04-06T12:22:14;13.97;49.81
75363;DHT22;64122;51.988;5.892;2023-04-06T12:24:48;13.90;49.57
75363;DHT22;64122;51.988;5.892;2023-04-06T12:27:17;13.82;49.89
75363;DHT22;64122;51.988;5.892;2023-04-06T12:29:47;13.75;50.19
75363;DHT22;64122;51.988;5.892;2023-04-06T12:32:16;13.71;51.11
75363;DHT22;64122;51.988;5.892;2023-04-06T12:34:46;13.67;51.64
75363;DHT22;64122;51.988;5.892;2023-04-06T12:37:18;13.56;51.28
75363;DHT22;64122;51.988;5.892;2023-04-06T12:39:47;13.54;51.82
75363;DHT22;64122;51.988;5.892;2023-04-06T12:42:16;13.46;52.20
75363;DHT22;64122;51.988;5.892;2023-04-06T12:44:46;13.33;52.18
75363;DHT22;64122;51.988;5.892;2023-04-06T12:47:15;13.21;51.97
75363;DHT22;64122;51.988;5.892;2023-04-06T12:49:45;13.09;52.93
75363;DHT22;64122;51.988;5.892;2023-04-06T12:52:14;13.03;53.21
75363;DHT22;64122;51.988;5.892;2023-04-06T12:54:47;12.92;53.31
75363;DHT22;64122;51.988;5.892;2023-04-06T12:57:17;12.90;53.91
75363;DHT22;64122;51.988;5.892;2023-04-06T12:59:47;12.76;54.00
75363;DHT22;64122;51.988;5.892;2023-04-06T13:02:16;12.59;54.26
75363;DHT22;64122;51.988;5.892;2023-04-06T13:04:46;12.53;55.77
75363;DHT22;64122;51.988;5.892;2023-04-06T13:07:15;12.51;55.49
75363;DHT22;64122;51.988;5.892;2023-04-06T13:09:47;12.48;55.36
75363;DHT22;64122;51.988;5.892;2023-04-06T13:12:18;12.44;56.11
75363;DHT22;64122;51.988;5.892;2023-04-06T13:14:47;12.50;57.10
75363;DHT22;64122;51.988;5.892;2023-04-06T13:17:18;12.52;56.48
75363;DHT22;64122;51.988;5.892;2023-04-06T13:19:48;12.50;56.39
75363;DHT22;64122;51.988;5.892;2023-04-06T13:22:17;12.44;56.95
75363;DHT22;64122;51.988;5.892;2023-04-06T13:24:49;12.38;56.63
75363;DHT22;64122;51.988;5.892;2023-04-06T13:27:19;12.32;57.20
75363;DHT22;64122;51.988;5.892;2023-04-06T13:29:48;12.28;57.79
75363;DHT22;64122;51.988;5.892;2023-04-06T13:32:17;12.27;56.98
75363;DHT22;64122;51.988;5.892;2023-04-06T13:34:47;12.25;56.95
75363;DHT22;64122;51.988;5.892;2023-04-06T13:37:17;12.23;57.17
75363;DHT22;64122;51.988;5.892;2023-04-06T13:39:49;12.28;57.27
75363;DHT22;64122;51.988;5.892;2023-04-06T13:42:19;12.29;56.97
75363;DHT22;64122;51.988;5.892;2023-04-06T13:44:48;12.27;57.25
75363;DHT22;64122;51.988;5.892;2023-04-06T13:47:18;12.28;57.63
75363;DHT22;64122;51.988;5.892;2023-04-06T13:49:47;12.29;57.63
75363;DHT22;64122;51.988;5.892;2023-04-06T13:52:17;12.29;58.00
75363;DHT22;64122;51.988;5.892;2023-04-06T13:54:49;12.25;57.80
75363;DHT22;64122;51.988;5.892;2023-04-06T13:57:18;12.25;58.19
75363;DHT22;64122;51.988;5.892;2023-04-06T13:59:47;12.21;58.74
75363;DHT22;64122;51.988;5.892;2023-04-06T14:02:17;12.22;58.54
75363;DHT22;64122;51.988;5.892;2023-04-06T14:04:46;12.22;58.36
75363;DHT22;64122;51.988;5.892;2023-04-06T14:07:15;12.27;58.62
75363;DHT22;64122;51.988;5.892;2023-04-06T14:09:45;12.26;58.68
75363;DHT22;64122;51.988;5.892;2023-04-06T14:12:16;12.27;58.58
75363;DHT22;64122;51.988;5.892;2023-04-06T14:14:46;12.31;58.53
75363;DHT22;64122;51.988;5.892;2023-04-06T14:17:16;12.29;58.52
75363;DHT22;64122;51.988;5.892;2023-04-06T14:19:45;12.23;58.78
75363;DHT22;64122;51.988;5.892;2023-04-06T14:22:15;12.23;59.14
75363;DHT22;64122;51.988;5.892;2023-04-06T14:24:44;12.25;59.24
75363;DHT22;64122;51.988;5.892;2023-04-06T14:27:16;12.19;58.65
75363;DHT22;64122;51.988;5.892;2023-04-06T14:29:45;12.14;59.32
75363;DHT22;64122;51.988;5.892;2023-04-06T14:32:14;12.14;59.66
75363;DHT22;64122;51.988;5.892;2023-04-06T14:34:43;12.12;59.78
75363;DHT22;64122;51.988;5.892;2023-04-06T14:37:13;12.08;59.56
75363;DHT22;64122;51.988;5.892;2023-04-06T14:39:43;12.10;60.33
75363;DHT22;64122;51.988;5.892;2023-04-06T14:42:13;12.10;60.28
75363;DHT22;64122;51.988;5.892;2023-04-06T14:44:44;12.07;60.44
75363;DHT22;64122;51.988;5.892;2023-04-06T14:47:14;12.07;60.36
75363;DHT22;64122;51.988;5.892;2023-04-06T14:49:46;12.11;60.92
75363;DHT22;64122;51.988;5.892;2023-04-06T14:52:16;12.10;60.72
75363;DHT22;64122;51.988;5.892;2023-04-06T14:54:45;12.08;60.55
75363;DHT22;64122;51.988;5.892;2023-04-06T14:57:15;11.98;61.29
75363;DHT22;64122;51.988;5.892;2023-04-06T14:59:46;11.89;61.61
75363;DHT22;64122;51.988;5.892;2023-04-06T15:02:16;11.84;61.68
75363;DHT22;64122;51.988;5.892;2023-04-06T15:04:45;11.79;61.83
75363;DHT22;64122;51.988;5.892;2023-04-06T15:07:14;11.76;62.11
75363;DHT22;64122;51.988;5.892;2023-04-06T15:09:43;11.73;61.73
75363;DHT22;64122;51.988;5.892;2023-04-06T15:12:13;11.70;62.10
75363;DHT22;64122;51.988;5.892;2023-04-06T15:14:42;11.68;62.34
75363;DHT22;64122;51.988;5.892;2023-04-06T15:17:14;11.68;62.19
75363;DHT22;64122;51.988;5.892;2023-04-06T15:19:43;11.62;62.32
75363;DHT22;64122;51.988;5.892;2023-04-06T15:22:12;11.60;62.51
75363;DHT22;64122;51.988;5.892;2023-04-06T15:24:41;11.57;62.36
75363;DHT22;64122;51.988;5.892;2023-04-06T15:27:10;11.58;62.50
75363;DHT22;64122;51.988;5.892;2023-04-06T15:29:40;11.53;62.89
75363;DHT22;64122;51.988;5.892;2023-04-06T15:32:09;11.51;63.11
75363;DHT22;64122;51.988;5.892;2023-04-06T15:34:41;11.41;63.14
75363;DHT22;64122;51.988;5.892;2023-04-06T15:37:10;11.37;63.14
75363;DHT22;64122;51.988;5.892;2023-04-06T15:39:39;11.31;63.78
75363;DHT22;64122;51.988;5.892;2023-04-06T15:42:10;11.29;64.00
75363;DHT22;64122;51.988;5.892;2023-04-06T15:44:39;11.31;64.18
75363;DHT22;64122;51.988;5.892;2023-04-06T15:47:09;11.33;64.14
75363;DHT22;64122;51.988;5.892;2023-04-06T15:49:40;11.31;64.28
75363;DHT22;64122;51.988;5.892;2023-04-06T15:52:10;11.31;64.12
75363;DHT22;64122;51.988;5.892;2023-04-06T15:54:39;11.24;64.28
75363;DHT22;64122;51.988;5.892;2023-04-06T15:57:08;11.25;64.27
75363;DHT22;64122;51.988;5.892;2023-04-06T15:59:38;11.20;64.39
75363;DHT22;64122;51.988;5.892;2023-04-06T16:02:07;11.16;64.60
75363;DHT22;64122;51.988;5.892;2023-04-06T16:04:36;11.11;64.95